الصفحة الرئيسية
METAR-TAF:

METAR-TAF

مطار :

مطار ندجيلي

كينشاسا, كونغو

دائرة عرض: 04-23S, خط طول: 015-26E, ارتفاع: 309 متر

مراقبة الطقس الحالي

تاريخ ووقت الإصدار 48 دقيقة قبل الساعة 21:00UTC
رياح هادئة
درجة الحرارة 22°درجة مئوية
الرطوبة 78%
ضغط 1017 hPa
الرؤية: 6000 متر
غيوم متفرقة على ارتفاع 1500 قدم

METAR: FZAA 052100Z 00000KT 6000 SCT015 22/18 Q1017 NOSIG

زمن: 22:48 (21:48 UTC)

توقعات

تاريخ ووقت الإصدار 4ساعات و 48 دقيقة قبل الساعة 17:00UTC
التوقعات صالحة من05 الساعة 18 UTC إلى 06 الساعة 24 UTC
ريح 6 عقدة من الغرب
الرؤية: 6000 متر
أصبح
من 06 الساعة 02 UTC إلى 06 الساعة 05 UTC
الرؤية: 3000 متر
غيوم مفككة على ارتفاع 1400 قدم
غشاء
أصبح
من 06 الساعة 10 UTC إلى 06 الساعة 12 UTC
الرؤية: 6000 متر
غيوم متفرقة على ارتفاع 2000 قدم

TAF: FZAA 051700Z 0518/0624 26006KT 6000 NSC BECMG 0602/0605 3000 BR BKN014 BECMG 0610/0612 6000 NSW SCT020

أرصاد الطقس والتوقعات من أكثر من 4000 مطار (تقارير الطقس للمطار METAR والتنبؤ بالطقس بالمطارTAF).

المحطات المتاحة هي النقط الصفراء والحمراء على الخريطة.

حرك المؤشر فوق النقطة لمعرفة اسم المحطة.

ثم انقر لمعرفة أرصاد وتوقعات الطقس.

لتغيير الخارطة: اضغط على الأزرار الخضراء مع رمز الصليب الأسود للتكبير. على الزر الأخضر مع شرطة للتصغير، أو على الأسهم الخضراء للخرائط المجاورة.


METAR-TAF: